sensor_id;sensor_type;location;lat;lon;timestamp;pressure;altitude;pressure_sealevel;temperature;humidity
54918;BME280;40818;50.562;7.454;2022-11-20T08:53:05;97184.78;;;1.02;100.00
54918;BME280;40818;50.562;7.454;2022-11-20T08:58:09;97195.47;;;1.14;100.00
54918;BME280;40818;50.562;7.454;2022-11-20T09:03:12;97184.72;;;1.28;100.00
54918;BME280;40818;50.562;7.454;2022-11-20T09:08:19;97183.44;;;1.40;100.00
54918;BME280;40818;50.562;7.454;2022-11-20T09:13:23;97194.84;;;1.55;100.00
54918;BME280;40818;50.562;7.454;2022-11-20T09:18:28;97201.44;;;1.60;100.00
54918;BME280;40818;50.562;7.454;2022-11-20T09:23:35;97202.16;;;1.64;100.00
54918;BME280;40818;50.562;7.454;2022-11-20T09:28:39;97197.50;;;1.74;100.00
54918;BME280;40818;50.562;7.454;2022-11-20T09:33:43;97195.63;;;1.79;100.00
54918;BME280;40818;50.562;7.454;2022-11-20T09:38:49;97195.75;;;1.76;100.00
54918;BME280;40818;50.562;7.454;2022-11-20T09:43:59;97190.25;;;1.85;100.00
54918;BME280;40818;50.562;7.454;2022-11-20T09:49:17;97186.06;;;1.84;100.00
54918;BME280;40818;50.562;7.454;2022-11-20T09:54:29;97179.41;;;2.00;100.00
54918;BME280;40818;50.562;7.454;2022-11-20T09:59:38;97174.00;;;2.08;100.00
54918;BME280;40818;50.562;7.454;2022-11-20T10:04:49;97172.38;;;2.05;100.00
54918;BME280;40818;50.562;7.454;2022-11-20T10:09:58;97158.22;;;2.39;100.00
54918;BME280;40818;50.562;7.454;2022-11-20T10:15:12;97168.31;;;2.63;100.00
54918;BME280;40818;50.562;7.454;2022-11-20T10:20:25;97162.34;;;2.83;100.00
54918;BME280;40818;50.562;7.454;2022-11-20T10:25:38;97154.81;;;2.99;100.00
54918;BME280;40818;50.562;7.454;2022-11-20T10:30:44;97150.16;;;3.07;100.00
54918;BME280;40818;50.562;7.454;2022-11-20T10:35:52;97140.38;;;3.16;100.00
54918;BME280;40818;50.562;7.454;2022-11-20T10:41:02;97132.50;;;3.20;100.00
54918;BME280;40818;50.562;7.454;2022-11-20T10:46:20;97132.84;;;3.13;100.00
54918;BME280;40818;50.562;7.454;2022-11-20T10:51:31;97125.72;;;3.19;100.00
54918;BME280;40818;50.562;7.454;2022-11-20T10:56:45;97110.16;;;3.22;100.00
54918;BME280;40818;50.562;7.454;2022-11-20T11:01:49;97110.72;;;3.10;100.00
54918;BME280;40818;50.562;7.454;2022-11-20T11:06:57;97118.09;;;3.18;100.00
54918;BME280;40818;50.562;7.454;2022-11-20T11:12:09;97111.13;;;3.20;100.00
54918;BME280;40818;50.562;7.454;2022-11-20T11:17:25;97094.91;;;3.00;100.00
54918;BME280;40818;50.562;7.454;2022-11-20T11:22:31;97098.59;;;2.95;100.00
54918;BME280;40818;50.562;7.454;2022-11-20T11:27:45;97098.41;;;2.99;100.00
54918;BME280;40818;50.562;7.454;2022-11-20T11:32:49;97097.63;;;2.97;100.00
54918;BME280;40818;50.562;7.454;2022-11-20T11:38:01;97087.78;;;3.07;100.00
54918;BME280;40818;50.562;7.454;2022-11-20T11:43:18;97077.13;;;2.97;100.00
54918;BME280;40818;50.562;7.454;2022-11-20T11:48:34;97061.78;;;2.77;100.00
54918;BME280;40818;50.562;7.454;2022-11-20T11:53:41;97053.06;;;2.81;100.00
54918;BME280;40818;50.562;7.454;2022-11-20T11:58:50;97052.03;;;2.85;100.00
54918;BME280;40818;50.562;7.454;2022-11-20T12:04:00;97042.81;;;2.81;100.00
54918;BME280;40818;50.562;7.454;2022-11-20T12:09:10;97040.72;;;2.70;100.00
54918;BME280;40818;50.562;7.454;2022-11-20T12:14:20;97034.53;;;2.76;100.00
54918;BME280;40818;50.562;7.454;2022-11-20T12:19:30;97033.53;;;2.97;100.00
54918;BME280;40818;50.562;7.454;2022-11-20T12:24:42;97033.22;;;3.03;100.00
54918;BME280;40818;50.562;7.454;2022-11-20T12:29:56;97024.06;;;3.17;100.00
54918;BME280;40818;50.562;7.454;2022-11-20T12:35:10;97024.31;;;3.30;100.00
54918;BME280;40818;50.562;7.454;2022-11-20T12:40:28;97016.28;;;3.01;100.00
54918;BME280;40818;50.562;7.454;2022-11-20T12:45:49;97001.88;;;2.98;100.00
54918;BME280;40818;50.562;7.454;2022-11-20T12:51:08;96996.44;;;3.04;100.00
54918;BME280;40818;50.562;7.454;2022-11-20T12:56:24;96989.53;;;3.24;100.00
54918;BME280;40818;50.562;7.454;2022-11-20T13:01:37;96986.00;;;3.27;100.00
54918;BME280;40818;50.562;7.454;2022-11-20T13:06:48;96983.22;;;3.49;100.00
54918;BME280;40818;50.562;7.454;2022-11-20T13:12:02;96980.94;;;3.60;100.00
54918;BME280;40818;50.562;7.454;2022-11-20T13:17:13;96972.97;;;3.66;100.00
54918;BME280;40818;50.562;7.454;2022-11-20T13:22:25;96968.28;;;3.57;100.00
54918;BME280;40818;50.562;7.454;2022-11-20T13:27:32;96954.63;;;3.56;100.00
54918;BME280;40818;50.562;7.454;2022-11-20T13:32:48;96947.50;;;3.27;100.00
54918;BME280;40818;50.562;7.454;2022-11-20T13:38:03;96942.38;;;3.09;100.00
54918;BME280;40818;50.562;7.454;2022-11-20T13:43:21;96930.81;;;3.00;100.00
54918;BME280;40818;50.562;7.454;2022-11-20T13:48:31;96925.84;;;2.97;100.00
54918;BME280;40818;50.562;7.454;2022-11-20T13:54:03;96920.56;;;3.00;100.00
54918;BME280;40818;50.562;7.454;2022-11-20T13:59:13;96914.84;;;3.13;100.00
54918;BME280;40818;50.562;7.454;2022-11-20T14:04:27;96907.00;;;3.33;100.00
54918;BME280;40818;50.562;7.454;2022-11-20T14:09:33;96903.59;;;3.50;100.00
54918;BME280;40818;50.562;7.454;2022-11-20T14:14:47;96897.31;;;3.56;100.00
54918;BME280;40818;50.562;7.454;2022-11-20T14:19:55;96883.41;;;3.60;100.00
54918;BME280;40818;50.562;7.454;2022-11-20T14:25:05;96881.28;;;3.68;100.00
54918;BME280;40818;50.562;7.454;2022-11-20T14:30:14;96869.66;;;3.79;100.00
54918;BME280;40818;50.562;7.454;2022-11-20T14:35:24;96868.72;;;3.80;100.00
54918;BME280;40818;50.562;7.454;2022-11-20T14:40:30;96861.13;;;3.78;100.00
54918;BME280;40818;50.562;7.454;2022-11-20T14:45:36;96854.31;;;3.77;100.00
54918;BME280;40818;50.562;7.454;2022-11-20T14:50:43;96847.28;;;3.81;100.00
54918;BME280;40818;50.562;7.454;2022-11-20T14:55:54;96842.88;;;3.83;100.00
54918;BME280;40818;50.562;7.454;2022-11-20T15:01:00;96837.63;;;3.86;100.00
54918;BME280;40818;50.562;7.454;2022-11-20T15:06:09;96836.69;;;3.87;100.00
54918;BME280;40818;50.562;7.454;2022-11-20T15:11:18;96834.13;;;3.87;100.00
54918;BME280;40818;50.562;7.454;2022-11-20T15:16:23;96833.47;;;3.83;100.00
54918;BME280;40818;50.562;7.454;2022-11-20T15:21:30;96825.00;;;3.81;100.00
54918;BME280;40818;50.562;7.454;2022-11-20T15:26:34;96825.16;;;3.78;100.00
54918;BME280;40818;50.562;7.454;2022-11-20T15:31:38;96825.00;;;3.81;100.00
54918;BME280;40818;50.562;7.454;2022-11-20T15:36:47;96823.13;;;3.85;100.00
54918;BME280;40818;50.562;7.454;2022-11-20T15:41:51;96825.69;;;3.85;100.00
54918;BME280;40818;50.562;7.454;2022-11-20T15:46:54;96819.72;;;3.84;100.00
54918;BME280;40818;50.562;7.454;2022-11-20T15:52:01;96821.53;;;3.82;100.00
54918;BME280;40818;50.562;7.454;2022-11-20T15:57:04;96813.22;;;3.77;100.00
54918;BME280;40818;50.562;7.454;2022-11-20T16:02:09;96798.09;;;3.72;100.00
54918;BME280;40818;50.562;7.454;2022-11-20T16:07:16;96767.03;;;3.61;100.00
54918;BME280;40818;50.562;7.454;2022-11-20T16:12:19;96764.28;;;3.48;100.00
54918;BME280;40818;50.562;7.454;2022-11-20T16:17:35;96750.94;;;3.41;100.00
54918;BME280;40818;50.562;7.454;2022-11-20T16:22:48;96739.84;;;3.41;100.00
54918;BME280;40818;50.562;7.454;2022-11-20T16:27:51;96735.38;;;3.29;100.00
54918;BME280;40818;50.562;7.454;2022-11-20T16:32:55;96735.84;;;3.19;100.00
54918;BME280;40818;50.562;7.454;2022-11-20T16:38:01;96731.84;;;3.14;100.00
54918;BME280;40818;50.562;7.454;2022-11-20T16:43:08;96717.78;;;3.05;100.00
54918;BME280;40818;50.562;7.454;2022-11-20T16:48:14;96706.03;;;3.17;100.00
54918;BME280;40818;50.562;7.454;2022-11-20T16:53:21;96696.59;;;3.17;100.00
54918;BME280;40818;50.562;7.454;2022-11-20T16:58:24;96688.09;;;3.17;100.00
54918;BME280;40818;50.562;7.454;2022-11-20T17:03:28;96679.66;;;3.15;100.00
54918;BME280;40818;50.562;7.454;2022-11-20T17:08:34;96674.44;;;3.16;100.00
54918;BME280;40818;50.562;7.454;2022-11-20T17:13:37;96662.13;;;3.23;100.00
